Dianna Rose — WEC4621 — position and weather

sailwx.info

Track history (hours):
 
Tides and Currents Weather Stations Pressure Air Temp Water Temp Dewpoint Dewpoint Depression Visibility Wind Speed Wind Dir Waves Ship Positions

Dianna Rose

Last reported at 2017-Aug-29 15:12 UTC. Time now 2017-Sep-24 15:48 UTC.
Position N 14°15' W 060°56'.
Warning: this ship's position is 26 days out of date.

Length 17 m.

MMSI: 378111924.

Date/timePositionNaut miles runAvg speedWind from/ knotsBaromVisibWave heightAir tempDewpointWater temp
2017-Aug-29 15:12N 14°15' W 060°56'1 7.1
2017-Aug-29 15:00N 14°17' W 060°56'4 7.5
2017-Aug-29 14:30N 14°21' W 060°55'4 7.1
2017-Aug-29 14:00N 14°24' W 060°54'2 4.2
2017-Aug-29 13:26N 14°26' W 060°53'0 0.0
2017-Aug-29 01:26N 14°26' W 060°53'0 0.0
2017-Aug-28 14:09N 14°26' W 060°53'0 2.7
2017-Aug-28 14:00N 14°26' W 060°54'4 7.8
2017-Aug-28 13:30N 14°26' W 060°58'4 8.7
2017-Aug-28 13:00N 14°27' W 061°02'  
2017-Aug-24 13:27N 16°28' W 062°06'4 8.0
2017-Aug-24 13:00N 16°31' W 062°09'4 8.0
2017-Aug-24 12:30N 16°35' W 062°10'11 6.9
2017-Aug-24 10:53N 16°45' W 062°14'4 0.3
2017-Aug-23 22:38N 16°49' W 062°13'1 7.9
2017-Aug-23 22:30N 16°49' W 062°14'  
2017-Aug-21 15:31N 18°27' W 064°39'0 5.7
2017-Aug-21 15:30N 18°27' W 064°39'3 5.9
2017-Aug-21 15:00N 18°27' W 064°42'3 5.6
2017-Aug-21 14:30N 18°26' W 064°45'1 0.1
2017-Aug-20 19:15N 18°27' W 064°46'0 1.0
2017-Aug-20 18:59N 18°26' W 064°46'1 1.1
2017-Aug-20 18:30N 18°27' W 064°45'4 7.9
2017-Aug-20 18:00N 18°23' W 064°47'4 8.1
2017-Aug-20 17:30N 18°20' W 064°50'  
Track history (hours):
 
Tides and Currents Weather Stations Pressure Air Temp Water Temp Dewpoint Dewpoint Depression Visibility Wind Speed Wind Dir Waves Ship Positions

Dianna Rose

Last reported at 2017-Aug-29 15:12 UTC. Time now 2017-Sep-24 15:48 UTC.
Position N 14°15' W 060°56'.
Warning: this ship's position is 26 days out of date.

Length 17 m.

MMSI: 378111924.

Date/timePositionNaut miles runAvg speedWind from/ knotsBaromVisibWave heightAir tempDewpointWater temp
2017-Aug-29 15:12N 14°15' W 060°56'1 7.1
2017-Aug-29 15:00N 14°17' W 060°56'4 7.5
2017-Aug-29 14:30N 14°21' W 060°55'4 7.1
2017-Aug-29 14:00N 14°24' W 060°54'2 4.2
2017-Aug-29 13:26N 14°26' W 060°53'0 0.0
2017-Aug-29 01:26N 14°26' W 060°53'0 0.0
2017-Aug-28 14:09N 14°26' W 060°53'0 2.7
2017-Aug-28 14:00N 14°26' W 060°54'4 7.8
2017-Aug-28 13:30N 14°26' W 060°58'4 8.7
2017-Aug-28 13:00N 14°27' W 061°02'  
2017-Aug-24 13:27N 16°28' W 062°06'4 8.0
2017-Aug-24 13:00N 16°31' W 062°09'4 8.0
2017-Aug-24 12:30N 16°35' W 062°10'11 6.9
2017-Aug-24 10:53N 16°45' W 062°14'4 0.3
2017-Aug-23 22:38N 16°49' W 062°13'1 7.9
2017-Aug-23 22:30N 16°49' W 062°14'  
2017-Aug-21 15:31N 18°27' W 064°39'0 5.7
2017-Aug-21 15:30N 18°27' W 064°39'3 5.9
2017-Aug-21 15:00N 18°27' W 064°42'3 5.6
2017-Aug-21 14:30N 18°26' W 064°45'1 0.1
2017-Aug-20 19:15N 18°27' W 064°46'0 1.0
2017-Aug-20 18:59N 18°26' W 064°46'1 1.1
2017-Aug-20 18:30N 18°27' W 064°45'4 7.9
2017-Aug-20 18:00N 18°23' W 064°47'4 8.1
2017-Aug-20 17:30N 18°20' W 064°50'  

Dump ship's entire track history